createdAt,value
2019-03-15T00:00:28.112Z,67.00
2019-03-15T00:02:59.567Z,67.20
2019-03-15T00:05:31.614Z,70.00
2019-03-15T00:08:03.236Z,66.20
2019-03-15T00:10:35.030Z,67.40
2019-03-15T00:13:06.487Z,66.60
2019-03-15T00:15:38.270Z,67.00
2019-03-15T00:18:09.760Z,68.60
2019-03-15T00:20:41.578Z,68.60
2019-03-15T00:23:13.372Z,64.20
2019-03-15T00:25:45.111Z,68.40
2019-03-15T00:28:17.978Z,67.80
2019-03-15T00:30:49.730Z,67.20
2019-03-15T00:33:21.514Z,64.80
2019-03-15T00:35:53.180Z,66.20
2019-03-15T00:38:25.027Z,65.40
2019-03-15T00:40:56.901Z,71.60
2019-03-15T00:43:28.602Z,64.80
2019-03-15T00:46:00.108Z,73.60
2019-03-15T00:48:31.970Z,68.20
2019-03-15T00:51:03.699Z,74.40
2019-03-15T00:53:35.404Z,80.60
2019-03-15T00:56:07.119Z,83.40
2019-03-15T00:58:38.860Z,85.20
2019-03-15T01:01:10.594Z,81.00
2019-03-15T01:03:42.323Z,83.60
2019-03-15T01:06:14.064Z,85.40
2019-03-15T01:08:45.555Z,82.60
2019-03-15T01:11:17.128Z,98.80
2019-03-15T01:13:49.084Z,90.00
2019-03-15T01:16:20.485Z,94.00
2019-03-15T01:18:52.389Z,89.60
2019-03-15T01:21:23.979Z,88.00
2019-03-15T01:23:55.776Z,95.80
2019-03-15T01:26:27.237Z,103.60
2019-03-15T01:28:59.122Z,108.40
2019-03-15T01:31:30.541Z,105.40
2019-03-15T01:34:02.164Z,66.60
2019-03-15T01:36:33.742Z,79.40
2019-03-15T01:39:05.940Z,88.40
2019-03-15T01:41:37.262Z,90.20
2019-03-15T01:44:08.700Z,87.80
2019-03-15T01:46:40.830Z,90.20
2019-03-15T01:49:12.383Z,96.60
2019-03-15T01:51:44.038Z,83.20
2019-03-15T01:54:16.749Z,96.40
2019-03-15T01:56:48.268Z,89.40
2019-03-15T01:59:20.056Z,92.20
2019-03-15T02:01:51.628Z,92.80
2019-03-15T02:04:23.419Z,103.80
2019-03-15T02:06:55.121Z,109.80
2019-03-15T02:09:26.596Z,108.00
2019-03-15T02:11:58.560Z,95.80
2019-03-15T02:14:29.826Z,100.40
2019-03-15T02:17:01.177Z,98.60
2019-03-15T02:19:32.607Z,106.60
2019-03-15T02:22:04.283Z,102.40
2019-03-15T02:24:36.263Z,101.80
2019-03-15T02:27:08.175Z,114.60
2019-03-15T02:29:39.884Z,106.40
2019-03-15T02:32:12.859Z,108.20
2019-03-15T02:34:44.688Z,94.20
2019-03-15T02:37:19.985Z,105.60
2019-03-15T02:39:51.885Z,95.20
2019-03-15T02:42:23.763Z,108.20
2019-03-15T02:44:56.177Z,102.00
2019-03-15T02:47:28.018Z,106.00
2019-03-15T02:50:00.638Z,105.40
2019-03-15T02:52:32.830Z,111.20
2019-03-15T02:55:04.565Z,117.40
2019-03-15T02:57:37.290Z,110.60
2019-03-15T03:00:09.314Z,114.20
2019-03-15T03:02:41.151Z,121.60
2019-03-15T03:05:13.035Z,196.25
2019-03-15T03:07:44.742Z,189.50
2019-03-15T03:10:16.618Z,178.50
2019-03-15T03:12:49.065Z,173.75
2019-03-15T03:15:20.933Z,141.60
2019-03-15T03:17:52.676Z,144.00
2019-03-15T03:20:24.437Z,152.40
2019-03-15T03:22:55.940Z,133.80
2019-03-15T03:25:27.504Z,125.40
2019-03-15T03:27:59.540Z,131.40
2019-03-15T03:30:32.601Z,115.00
2019-03-15T03:33:04.293Z,132.40
2019-03-15T03:35:36.128Z,116.00
2019-03-15T03:38:07.912Z,122.40
2019-03-15T03:40:39.433Z,114.40
2019-03-15T03:43:11.380Z,103.20
2019-03-15T03:45:43.062Z,121.40
2019-03-15T03:48:15.818Z,115.40
2019-03-15T03:50:48.146Z,107.60
2019-03-15T03:53:19.783Z,119.80
2019-03-15T03:55:51.714Z,120.60
2019-03-15T03:58:23.916Z,112.20
2019-03-15T04:00:55.337Z,112.40
2019-03-15T04:03:27.400Z,108.40
2019-03-15T04:05:59.343Z,101.40
2019-03-15T04:08:30.755Z,108.00
2019-03-15T04:11:02.385Z,102.40
2019-03-15T04:13:34.307Z,108.60
2019-03-15T04:16:06.091Z,108.60
2019-03-15T04:18:37.909Z,112.20
2019-03-15T04:21:09.462Z,122.80
2019-03-15T04:23:41.371Z,98.00
2019-03-15T04:26:12.947Z,94.60
2019-03-15T04:28:44.690Z,93.40
2019-03-15T04:31:16.172Z,94.60
2019-03-15T04:33:47.806Z,100.00
2019-03-15T04:36:19.530Z,78.80
2019-03-15T04:38:51.529Z,98.20
2019-03-15T04:41:23.302Z,97.00
2019-03-15T04:43:55.114Z,97.60
2019-03-15T04:46:27.084Z,91.60
2019-03-15T04:48:58.397Z,93.60
2019-03-15T04:51:29.810Z,97.60
2019-03-15T04:54:01.675Z,96.60
2019-03-15T04:56:33.493Z,101.40
2019-03-15T04:59:05.358Z,88.60
2019-03-15T05:01:37.550Z,91.60
2019-03-15T05:04:09.274Z,100.00
2019-03-15T05:06:41.365Z,95.20
2019-03-15T05:09:13.204Z,99.00
2019-03-15T05:11:45.063Z,97.20
2019-03-15T05:14:17.032Z,87.60
2019-03-15T05:16:49.529Z,84.40
2019-03-15T05:19:22.168Z,86.40
2019-03-15T05:21:54.004Z,86.80
2019-03-15T05:24:25.654Z,78.60
2019-03-15T05:26:57.144Z,81.00
2019-03-15T05:29:28.993Z,78.20
2019-03-15T05:32:00.757Z,82.60
2019-03-15T05:34:33.381Z,73.40
2019-03-15T05:37:04.995Z,75.00
2019-03-15T05:39:37.088Z,65.80
2019-03-15T05:42:09.255Z,71.00
2019-03-15T05:44:41.591Z,68.40
2019-03-15T05:47:13.672Z,70.00
2019-03-15T05:49:45.197Z,65.40
2019-03-15T05:52:17.140Z,61.40
2019-03-15T05:54:48.878Z,62.00
2019-03-15T05:57:20.727Z,61.80
2019-03-15T05:59:53.020Z,62.20
2019-03-15T06:02:25.231Z,63.80
2019-03-15T06:04:57.926Z,59.20
2019-03-15T06:07:29.951Z,59.80
2019-03-15T06:10:01.859Z,57.00
2019-03-15T06:12:33.593Z,56.60
2019-03-15T06:15:05.920Z,57.40
2019-03-15T06:17:38.165Z,56.80
2019-03-15T06:20:10.700Z,55.20
2019-03-15T06:22:42.664Z,47.40
2019-03-15T06:25:15.232Z,41.40
2019-03-15T06:27:47.537Z,47.40
2019-03-15T06:30:19.821Z,50.20
2019-03-15T06:32:51.764Z,50.60
2019-03-15T06:35:24.031Z,49.80
2019-03-15T06:37:56.119Z,46.20
2019-03-15T06:40:28.130Z,53.00
2019-03-15T06:43:00.756Z,49.80
2019-03-15T06:45:32.582Z,51.40
2019-03-15T06:48:05.188Z,54.40
2019-03-15T06:50:39.882Z,49.40
2019-03-15T06:53:13.988Z,51.00
2019-03-15T06:55:47.358Z,43.00
2019-03-15T06:58:20.415Z,51.00
2019-03-15T07:00:54.914Z,56.80
2019-03-15T07:03:28.683Z,56.00
2019-03-15T07:06:03.135Z,55.80
2019-03-15T07:08:37.638Z,50.00
2019-03-15T07:11:12.773Z,49.00
2019-03-15T07:13:48.705Z,53.60
2019-03-15T07:16:23.986Z,55.20
2019-03-15T07:18:58.923Z,55.60
2019-03-15T07:21:36.803Z,55.80
2019-03-15T07:24:24.193Z,52.40
2019-03-15T07:26:51.610Z,52.40
2019-03-15T07:29:26.649Z,53.20
2019-03-15T07:32:02.336Z,52.00
2019-03-15T07:34:36.795Z,56.80
2019-03-15T07:37:11.541Z,57.20
2019-03-15T07:39:46.682Z,55.80
2019-03-15T07:42:18.946Z,58.00
2019-03-15T07:44:51.259Z,57.00
2019-03-15T07:47:23.302Z,55.20
2019-03-15T07:49:55.727Z,57.00
2019-03-15T07:52:28.555Z,55.20
2019-03-15T07:55:00.715Z,53.60
2019-03-15T07:57:32.713Z,54.20
2019-03-15T08:00:04.813Z,51.40
2019-03-15T08:02:36.428Z,55.40
2019-03-15T08:05:09.192Z,52.80
2019-03-15T08:07:45.153Z,54.80
2019-03-15T08:10:15.701Z,52.40
2019-03-15T08:12:49.725Z,52.00
2019-03-15T08:15:24.501Z,50.20
2019-03-15T08:17:59.375Z,47.60
2019-03-15T08:20:35.722Z,50.80
2019-03-15T08:23:11.356Z,45.80
2019-03-15T08:25:46.286Z,47.00
2019-03-15T08:28:22.138Z,48.80
2019-03-15T08:30:57.215Z,47.40
2019-03-15T08:33:32.245Z,47.60
2019-03-15T08:36:09.552Z,46.40
2019-03-15T08:38:47.893Z,49.00
2019-03-15T08:41:20.783Z,43.60
2019-03-15T08:43:55.393Z,46.00
2019-03-15T08:46:29.642Z,44.20
2019-03-15T08:49:06.249Z,45.00
2019-03-15T08:51:42.577Z,45.60
2019-03-15T08:54:17.328Z,47.40
2019-03-15T08:56:52.609Z,45.80
2019-03-15T08:59:28.730Z,43.00
2019-03-15T09:02:04.067Z,44.80
2019-03-15T09:04:38.836Z,44.00
2019-03-15T09:07:13.547Z,44.60
2019-03-15T09:09:50.559Z,47.80
2019-03-15T09:12:29.126Z,42.40
2019-03-15T09:15:04.510Z,43.80
2019-03-15T09:17:41.412Z,41.00
2019-03-15T09:20:16.822Z,38.60
2019-03-15T09:22:54.905Z,42.40
2019-03-15T09:25:29.527Z,40.80
2019-03-15T09:28:05.767Z,35.40
2019-03-15T09:30:40.289Z,37.60
2019-03-15T09:33:15.112Z,41.80
2019-03-15T09:35:50.981Z,41.00
2019-03-15T09:38:26.300Z,37.80
2019-03-15T09:41:03.415Z,33.00
2019-03-15T09:43:45.240Z,33.00
2019-03-15T09:46:21.004Z,33.60
2019-03-15T09:48:59.800Z,34.00
2019-03-15T09:51:39.266Z,29.60
2019-03-15T09:54:15.770Z,25.80
2019-03-15T09:56:57.800Z,41.20
2019-03-15T09:59:32.397Z,38.20
2019-03-15T10:02:08.435Z,31.00
2019-03-15T10:04:42.812Z,35.80
2019-03-15T10:07:19.081Z,29.00
2019-03-15T10:09:56.083Z,24.40
2019-03-15T10:12:31.192Z,26.00
2019-03-15T10:15:08.132Z,27.80
2019-03-15T10:17:47.145Z,34.40
2019-03-15T10:20:21.811Z,31.80
2019-03-15T10:23:06.126Z,30.80
2019-03-15T10:25:46.041Z,33.00
2019-03-15T10:28:11.854Z,33.20
2019-03-15T10:30:49.384Z,33.60
2019-03-15T10:33:30.491Z,32.80
2019-03-15T10:36:05.733Z,36.80
2019-03-15T10:38:43.966Z,36.20
2019-03-15T10:41:18.763Z,33.00
2019-03-15T10:43:55.176Z,33.40
2019-03-15T10:46:29.739Z,28.40
2019-03-15T10:49:04.571Z,29.20
2019-03-15T10:51:39.052Z,9.20
2019-03-15T10:54:16.320Z,33.40
2019-03-15T10:56:51.453Z,35.20
2019-03-15T10:59:26.350Z,38.40
2019-03-15T11:02:01.321Z,38.20
2019-03-15T11:04:35.630Z,41.20
2019-03-15T11:07:09.765Z,39.80
2019-03-15T11:09:42.953Z,34.40
2019-03-15T11:12:15.110Z,37.40
2019-03-15T11:14:47.060Z,32.40
2019-03-15T11:17:18.634Z,40.60
2019-03-15T11:19:50.624Z,40.20
2019-03-15T11:22:22.386Z,43.00
2019-03-15T11:24:54.332Z,40.40
2019-03-15T11:27:26.574Z,38.00
2019-03-15T11:29:58.685Z,37.80
2019-03-15T11:32:30.684Z,41.40
2019-03-15T11:35:02.705Z,42.00
2019-03-15T11:37:34.514Z,46.00
2019-03-15T11:40:07.198Z,40.80
2019-03-15T11:42:39.461Z,39.80
2019-03-15T11:45:13.649Z,42.40
2019-03-15T11:48:02.495Z,42.00
2019-03-15T11:50:24.705Z,39.00
2019-03-15T11:52:58.331Z,43.00
2019-03-15T11:55:32.200Z,40.40
2019-03-15T11:58:05.517Z,47.00
2019-03-15T12:00:38.818Z,46.40
2019-03-15T12:03:11.752Z,46.20
2019-03-15T12:05:43.742Z,47.60
2019-03-15T12:08:15.399Z,49.00
2019-03-15T12:10:47.078Z,47.80
2019-03-15T12:13:18.909Z,45.00
2019-03-15T12:15:50.596Z,50.20
2019-03-15T12:18:22.381Z,51.80
2019-03-15T12:20:54.176Z,52.40
2019-03-15T12:23:26.081Z,51.20
2019-03-15T12:25:57.725Z,53.60
2019-03-15T12:28:29.533Z,50.00
2019-03-15T12:31:01.289Z,54.00
2019-03-15T12:33:33.106Z,53.40
2019-03-15T12:36:05.071Z,50.20
2019-03-15T12:38:36.892Z,52.80
2019-03-15T12:41:08.639Z,49.60
2019-03-15T12:43:40.254Z,52.80
2019-03-15T12:46:12.012Z,50.60
2019-03-15T12:48:43.889Z,52.20
2019-03-15T12:51:15.835Z,51.80
2019-03-15T12:53:47.622Z,52.00
2019-03-15T12:56:19.230Z,52.80
2019-03-15T12:58:51.399Z,50.40
2019-03-15T13:01:22.978Z,51.00
2019-03-15T13:03:54.560Z,51.40
2019-03-15T13:06:26.234Z,52.60
2019-03-15T13:08:58.133Z,51.00
2019-03-15T13:11:30.138Z,53.80
2019-03-15T13:14:03.858Z,51.00
2019-03-15T13:16:35.531Z,53.20
2019-03-15T13:19:07.133Z,55.60
2019-03-15T13:21:38.854Z,51.60
2019-03-15T13:24:10.646Z,52.80
2019-03-15T13:26:42.229Z,53.80
2019-03-15T13:29:14.428Z,55.00
2019-03-15T13:31:45.936Z,56.40
2019-03-15T13:34:18.115Z,55.60
2019-03-15T13:36:50.243Z,56.80
2019-03-15T13:39:22.111Z,59.60
2019-03-15T13:41:54.436Z,58.80
2019-03-15T13:44:26.424Z,59.80
2019-03-15T13:46:58.131Z,58.80
2019-03-15T13:49:29.860Z,54.00
2019-03-15T13:52:01.610Z,57.20
2019-03-15T13:54:33.034Z,58.20
2019-03-15T13:57:04.729Z,59.00
2019-03-15T13:59:36.891Z,59.80
2019-03-15T14:02:11.704Z,59.00
2019-03-15T14:04:43.523Z,57.00
2019-03-15T14:07:15.270Z,60.40
2019-03-15T14:09:47.114Z,61.60
2019-03-15T14:12:19.130Z,61.00
2019-03-15T14:14:51.418Z,64.80
2019-03-15T14:17:23.127Z,57.40
2019-03-15T14:19:54.762Z,63.40
2019-03-15T14:22:26.172Z,61.80
2019-03-15T14:24:57.739Z,67.00
2019-03-15T14:27:37.502Z,55.20
2019-03-15T14:30:04.263Z,60.60
2019-03-15T14:32:35.717Z,60.20
2019-03-15T14:35:07.614Z,62.40
2019-03-15T14:37:39.218Z,60.40
2019-03-15T14:40:10.809Z,64.20
2019-03-15T14:42:42.547Z,65.20
2019-03-15T14:45:14.303Z,64.00
2019-03-15T14:47:46.124Z,76.00
2019-03-15T14:50:18.098Z,77.20
2019-03-15T14:52:49.697Z,85.40
2019-03-15T14:55:21.590Z,84.80
2019-03-15T14:57:53.730Z,88.80
2019-03-15T15:00:25.512Z,92.00
2019-03-15T15:02:57.406Z,93.40
2019-03-15T15:05:29.132Z,90.80
2019-03-15T15:08:00.935Z,96.80
2019-03-15T15:10:32.976Z,91.00
2019-03-15T15:13:04.687Z,99.40
2019-03-15T15:15:36.653Z,88.00
2019-03-15T15:18:08.063Z,94.00
2019-03-15T15:20:39.862Z,94.20
2019-03-15T15:23:11.455Z,90.40
2019-03-15T15:25:43.498Z,91.60
2019-03-15T15:28:14.977Z,103.80
2019-03-15T15:30:46.766Z,94.80
2019-03-15T15:33:19.155Z,95.40
2019-03-15T15:35:50.829Z,98.20
2019-03-15T15:38:22.436Z,98.00
2019-03-15T15:40:54.487Z,98.00
2019-03-15T15:43:27.145Z,82.00
2019-03-15T15:45:58.904Z,97.20
2019-03-15T15:48:30.350Z,97.20
2019-03-15T15:51:02.136Z,93.60
2019-03-15T15:53:33.583Z,95.40
2019-03-15T15:56:05.634Z,94.20
2019-03-15T15:58:37.038Z,95.20
2019-03-15T16:01:08.971Z,94.20
2019-03-15T16:03:41.142Z,98.80
2019-03-15T16:06:12.576Z,100.40
2019-03-15T16:08:43.747Z,97.00
2019-03-15T16:11:15.755Z,91.20
2019-03-15T16:13:47.388Z,97.80
2019-03-15T16:16:19.240Z,90.20
2019-03-15T16:18:50.888Z,93.40
2019-03-15T16:21:22.791Z,92.20
2019-03-15T16:23:55.024Z,90.00
2019-03-15T16:26:29.046Z,90.20
2019-03-15T16:29:00.514Z,99.00
2019-03-15T16:31:32.297Z,89.60
2019-03-15T16:34:04.610Z,94.80
2019-03-15T16:36:36.278Z,95.00
2019-03-15T16:39:09.740Z,97.20
2019-03-15T16:41:41.266Z,90.20
2019-03-15T16:44:13.012Z,93.40
2019-03-15T16:46:44.368Z,94.40
2019-03-15T16:49:16.225Z,89.40
2019-03-15T16:51:47.482Z,93.00
2019-03-15T16:54:20.121Z,93.60
2019-03-15T16:56:51.851Z,96.80
2019-03-15T16:59:24.679Z,94.80
2019-03-15T17:01:56.158Z,92.80
2019-03-15T17:04:30.532Z,96.00
2019-03-15T17:07:01.949Z,96.60
2019-03-15T17:09:33.546Z,87.20
2019-03-15T17:12:05.061Z,84.60
2019-03-15T17:14:36.828Z,82.20
2019-03-15T17:17:09.067Z,81.80
2019-03-15T17:19:41.026Z,78.80
2019-03-15T17:22:13.837Z,81.00
2019-03-15T17:24:45.365Z,78.60
2019-03-15T17:27:17.027Z,78.40
2019-03-15T17:29:49.540Z,79.00
2019-03-15T17:32:21.048Z,81.60
2019-03-15T17:34:52.866Z,79.80
2019-03-15T17:37:24.478Z,79.80
2019-03-15T17:39:56.043Z,73.00
2019-03-15T17:42:27.452Z,76.80
2019-03-15T17:44:58.753Z,74.40
2019-03-15T17:47:30.134Z,81.20
2019-03-15T17:50:01.788Z,76.80
2019-03-15T17:52:33.353Z,78.60
2019-03-15T17:55:04.859Z,73.60
2019-03-15T17:57:36.841Z,78.20
2019-03-15T18:00:19.614Z,79.00
2019-03-15T18:02:51.268Z,76.80
2019-03-15T18:05:22.972Z,72.80
2019-03-15T18:07:55.040Z,74.60
2019-03-15T18:10:27.017Z,73.00
2019-03-15T18:12:58.685Z,78.40
2019-03-15T18:15:30.702Z,71.80
2019-03-15T18:18:02.208Z,77.20
2019-03-15T18:20:33.711Z,72.60
2019-03-15T18:23:05.460Z,71.60
2019-03-15T18:25:37.072Z,77.00
2019-03-15T18:28:08.746Z,75.20
2019-03-15T18:30:40.243Z,78.40
2019-03-15T18:33:12.002Z,78.20
2019-03-15T18:35:43.546Z,77.60
2019-03-15T18:38:15.205Z,75.00
2019-03-15T18:40:46.983Z,76.20
2019-03-15T18:43:18.728Z,80.80
2019-03-15T18:45:50.240Z,75.20
2019-03-15T18:48:22.057Z,74.20
2019-03-15T18:50:53.917Z,80.00
2019-03-15T18:53:25.639Z,80.00
2019-03-15T18:55:57.143Z,83.20
2019-03-15T18:58:29.068Z,83.80
2019-03-15T19:01:00.472Z,85.40
2019-03-15T19:03:31.880Z,85.60
2019-03-15T19:06:03.273Z,89.00
2019-03-15T19:08:34.393Z,85.00
2019-03-15T19:11:06.466Z,86.00
2019-03-15T19:13:39.141Z,84.20
2019-03-15T19:16:20.004Z,79.20
2019-03-15T19:18:44.199Z,75.40
2019-03-15T19:21:15.799Z,86.00
2019-03-15T19:23:47.529Z,86.00
2019-03-15T19:26:19.363Z,88.00
2019-03-15T19:28:50.670Z,86.80
2019-03-15T19:31:22.041Z,85.40
2019-03-15T19:33:53.278Z,89.60
2019-03-15T19:36:24.707Z,87.80
2019-03-15T19:38:56.306Z,85.20
2019-03-15T19:41:28.126Z,78.20
2019-03-15T19:43:59.517Z,76.40
2019-03-15T19:46:31.265Z,83.20
2019-03-15T19:49:02.830Z,84.60
2019-03-15T19:51:34.583Z,80.80
2019-03-15T19:54:06.365Z,88.80
2019-03-15T19:56:38.130Z,89.40
2019-03-15T19:59:09.768Z,82.80
2019-03-15T20:01:41.388Z,83.40
2019-03-15T20:04:13.098Z,80.20
2019-03-15T20:06:44.568Z,83.80
2019-03-15T20:09:16.341Z,87.00
2019-03-15T20:11:48.345Z,84.40
2019-03-15T20:14:20.088Z,84.40
2019-03-15T20:16:51.669Z,86.40
2019-03-15T20:19:23.375Z,85.00
2019-03-15T20:21:55.018Z,90.80
2019-03-15T20:24:26.456Z,87.80
2019-03-15T20:26:57.851Z,86.00
2019-03-15T20:29:30.066Z,79.60
2019-03-15T20:32:01.267Z,92.80
2019-03-15T20:34:32.609Z,86.60
2019-03-15T20:37:04.140Z,84.80
2019-03-15T20:39:35.989Z,79.20
2019-03-15T20:42:07.433Z,88.60
2019-03-15T20:44:39.147Z,73.20
2019-03-15T20:47:11.981Z,87.80
2019-03-15T20:49:43.465Z,75.20
2019-03-15T20:52:14.725Z,85.00
2019-03-15T20:54:46.175Z,81.00
2019-03-15T20:57:17.550Z,80.00
2019-03-15T20:59:48.896Z,77.40
2019-03-15T21:02:20.320Z,77.40
2019-03-15T21:04:51.658Z,83.80
2019-03-15T21:07:22.933Z,81.80
2019-03-15T21:09:54.147Z,81.60
2019-03-15T21:12:25.463Z,81.80
2019-03-15T21:14:57.023Z,84.00
2019-03-15T21:17:28.533Z,83.60
2019-03-15T21:20:00.344Z,79.40
2019-03-15T21:22:31.698Z,83.80
2019-03-15T21:25:03.147Z,83.80
2019-03-15T21:27:34.419Z,81.00
2019-03-15T21:30:06.665Z,84.40
2019-03-15T21:32:38.400Z,89.00
2019-03-15T21:35:10.213Z,77.40
2019-03-15T21:37:41.633Z,79.80
2019-03-15T21:40:13.550Z,76.40
2019-03-15T21:42:44.914Z,83.40
2019-03-15T21:45:16.723Z,83.00
2019-03-15T21:47:48.005Z,82.60
2019-03-15T21:50:19.963Z,82.20
2019-03-15T21:52:51.434Z,83.60
2019-03-15T21:55:22.696Z,85.00
2019-03-15T21:57:54.293Z,78.20
2019-03-15T22:00:25.764Z,89.40
2019-03-15T22:02:57.218Z,85.00
2019-03-15T22:05:29.142Z,93.00
2019-03-15T22:08:00.452Z,81.40
2019-03-15T22:10:31.982Z,82.80
2019-03-15T22:13:03.336Z,86.20
2019-03-15T22:15:34.816Z,82.00
2019-03-15T22:18:06.303Z,85.00
2019-03-15T22:20:38.746Z,86.00
2019-03-15T22:23:09.900Z,80.00
2019-03-15T22:25:41.322Z,85.60
2019-03-15T22:28:12.941Z,82.40
2019-03-15T22:30:44.352Z,86.40
2019-03-15T22:33:15.901Z,89.60
2019-03-15T22:35:47.800Z,92.00
2019-03-15T22:38:26.239Z,78.80
2019-03-15T22:40:52.638Z,87.00
2019-03-15T22:43:24.600Z,84.40
2019-03-15T22:45:55.806Z,90.80
2019-03-15T22:48:27.479Z,81.20
2019-03-15T22:50:58.737Z,85.00
2019-03-15T22:53:30.445Z,92.00
2019-03-15T22:56:02.012Z,85.00
2019-03-15T22:58:34.389Z,94.80
2019-03-15T23:01:06.729Z,89.60
2019-03-15T23:03:40.334Z,89.80
2019-03-15T23:06:12.750Z,91.60
2019-03-15T23:08:44.059Z,94.60
2019-03-15T23:11:15.465Z,91.20
2019-03-15T23:13:46.711Z,89.80
2019-03-15T23:16:18.443Z,92.40
2019-03-15T23:18:49.803Z,87.60
2019-03-15T23:21:21.402Z,86.80
2019-03-15T23:23:52.726Z,95.60
2019-03-15T23:26:24.096Z,87.20
2019-03-15T23:28:55.540Z,91.20
2019-03-15T23:31:26.886Z,90.20
2019-03-15T23:33:58.395Z,98.80
2019-03-15T23:36:29.632Z,93.20
2019-03-15T23:39:01.380Z,95.20
2019-03-15T23:41:33.555Z,85.80
2019-03-15T23:44:05.071Z,94.80
2019-03-15T23:46:36.455Z,97.00
2019-03-15T23:49:09.088Z,92.20
2019-03-15T23:51:40.357Z,89.60
2019-03-15T23:54:11.733Z,94.60
2019-03-15T23:56:43.126Z,88.80
2019-03-15T23:59:14.780Z,91.20
